Archival Weather

Abadan

Abadan, Iran (OIAA)

Report from: Thursday, September 21, 2023 5:00 PM UTC
Current time: Sunday, February 25, 2024 9:20 PM UTC

Current weather – Weather history – Daily summaries
Weather forecast

Temperature35.0°C (95.0°F)
Heat index32.5°C (90.6°F)
Dew point4.0°C (39.2°F)
Winds 6 kts (3.1 m/s, 6.9 mph) Northwest (320°)
Clouds Sky clear
Altimeter29.68 in.Hg (1005 mB)
Relative humidity15 %
Density altitude2,669 ft. (813 m)
Remarks Ceiling and visibility OK
Flight conditions Visual Meteorological Conditions
Raw dataOIAA 211700Z 32006KT CAVOK 35/04 Q1005
An error has occurred. This application may no longer respond until reloaded. Reload 🗙